sensor_id;sensor_type;location;lat;lon;timestamp;P1;durP1;ratioP1;P2;durP2;ratioP2
29242;SDS011;21110;48.036;15.780;2023-03-13T00:04:00;3.97;;;1.90;;
29242;SDS011;21110;48.036;15.780;2023-03-13T00:06:28;5.10;;;1.70;;
29242;SDS011;21110;48.036;15.780;2023-03-13T00:08:58;3.10;;;1.80;;
29242;SDS011;21110;48.036;15.780;2023-03-13T00:11:25;6.75;;;1.77;;
29242;SDS011;21110;48.036;15.780;2023-03-13T00:13:55;2.67;;;1.70;;
29242;SDS011;21110;48.036;15.780;2023-03-13T00:16:21;6.00;;;1.70;;
29242;SDS011;21110;48.036;15.780;2023-03-13T00:18:48;2.88;;;1.70;;
29242;SDS011;21110;48.036;15.780;2023-03-13T00:21:15;2.67;;;1.90;;
29242;SDS011;21110;48.036;15.780;2023-03-13T00:23:43;5.82;;;1.70;;
29242;SDS011;21110;48.036;15.780;2023-03-13T00:26:10;4.47;;;1.70;;
29242;SDS011;21110;48.036;15.780;2023-03-13T00:28:38;2.58;;;1.80;;
29242;SDS011;21110;48.036;15.780;2023-03-13T00:33:31;3.95;;;1.70;;
29242;SDS011;21110;48.036;15.780;2023-03-13T00:36:01;4.72;;;1.75;;
29242;SDS011;21110;48.036;15.780;2023-03-13T00:38:32;4.97;;;1.70;;
29242;SDS011;21110;48.036;15.780;2023-03-13T00:40:59;2.13;;;1.60;;
29242;SDS011;21110;48.036;15.780;2023-03-13T00:43:29;2.85;;;1.65;;
29242;SDS011;21110;48.036;15.780;2023-03-13T00:45:55;3.10;;;1.60;;
29242;SDS011;21110;48.036;15.780;2023-03-13T00:48:21;1.70;;;1.60;;
29242;SDS011;21110;48.036;15.780;2023-03-13T00:50:47;4.07;;;1.60;;
29242;SDS011;21110;48.036;15.780;2023-03-13T00:53:13;4.30;;;1.55;;
29242;SDS011;21110;48.036;15.780;2023-03-13T00:55:49;3.63;;;1.70;;
29242;SDS011;21110;48.036;15.780;2023-03-13T00:58:23;3.88;;;1.92;;
29242;SDS011;21110;48.036;15.780;2023-03-13T01:00:50;2.08;;;1.70;;
29242;SDS011;21110;48.036;15.780;2023-03-13T01:03:16;2.05;;;1.55;;
29242;SDS011;21110;48.036;15.780;2023-03-13T01:05:42;1.80;;;1.70;;
29242;SDS011;21110;48.036;15.780;2023-03-13T01:08:08;2.53;;;1.70;;
29242;SDS011;21110;48.036;15.780;2023-03-13T01:10:34;2.92;;;1.77;;
29242;SDS011;21110;48.036;15.780;2023-03-13T01:12:59;1.75;;;1.60;;
29242;SDS011;21110;48.036;15.780;2023-03-13T01:15:25;3.65;;;1.67;;
29242;SDS011;21110;48.036;15.780;2023-03-13T01:17:51;3.60;;;1.70;;
29242;SDS011;21110;48.036;15.780;2023-03-13T01:20:16;1.98;;;1.65;;
29242;SDS011;21110;48.036;15.780;2023-03-13T01:22:42;1.60;;;1.50;;
29242;SDS011;21110;48.036;15.780;2023-03-13T01:25:08;1.73;;;1.63;;
29242;SDS011;21110;48.036;15.780;2023-03-13T01:27:33;1.80;;;1.60;;
29242;SDS011;21110;48.036;15.780;2023-03-13T01:29:59;2.80;;;1.70;;
29242;SDS011;21110;48.036;15.780;2023-03-13T01:32:25;2.97;;;1.70;;
29242;SDS011;21110;48.036;15.780;2023-03-13T01:34:50;1.55;;;1.45;;
29242;SDS011;21110;48.036;15.780;2023-03-13T01:37:16;1.70;;;1.60;;
29242;SDS011;21110;48.036;15.780;2023-03-13T01:39:41;1.70;;;1.60;;
29242;SDS011;21110;48.036;15.780;2023-03-13T01:42:07;1.80;;;1.45;;
29242;SDS011;21110;48.036;15.780;2023-03-13T01:44:52;4.85;;;1.60;;
29242;SDS011;21110;48.036;15.780;2023-03-13T01:47:19;3.00;;;1.50;;
29242;SDS011;21110;48.036;15.780;2023-03-13T01:49:45;2.85;;;1.70;;
29242;SDS011;21110;48.036;15.780;2023-03-13T01:52:13;1.73;;;1.60;;
29242;SDS011;21110;48.036;15.780;2023-03-13T02:02:26;2.75;;;1.50;;
29242;SDS011;21110;48.036;15.780;2023-03-13T02:04:54;1.30;;;1.30;;
29242;SDS011;21110;48.036;15.780;2023-03-13T02:07:25;1.92;;;1.45;;
29242;SDS011;21110;48.036;15.780;2023-03-13T02:10:18;2.90;;;1.50;;
29242;SDS011;21110;48.036;15.780;2023-03-13T02:12:46;3.03;;;1.50;;
29242;SDS011;21110;48.036;15.780;2023-03-13T02:15:14;2.08;;;1.40;;
29242;SDS011;21110;48.036;15.780;2023-03-13T02:17:42;2.63;;;1.60;;
29242;SDS011;21110;48.036;15.780;2023-03-13T02:20:09;1.33;;;1.30;;
29242;SDS011;21110;48.036;15.780;2023-03-13T02:27:33;4.35;;;1.50;;
29242;SDS011;21110;48.036;15.780;2023-03-13T02:29:59;5.05;;;1.40;;
29242;SDS011;21110;48.036;15.780;2023-03-13T02:32:25;8.70;;;1.60;;
29242;SDS011;21110;48.036;15.780;2023-03-13T02:34:54;6.82;;;1.40;;
29242;SDS011;21110;48.036;15.780;2023-03-13T02:37:22;7.40;;;1.50;;
29242;SDS011;21110;48.036;15.780;2023-03-13T02:39:50;5.93;;;1.50;;
29242;SDS011;21110;48.036;15.780;2023-03-13T02:42:17;4.93;;;1.70;;
29242;SDS011;21110;48.036;15.780;2023-03-13T02:44:45;6.63;;;1.50;;
29242;SDS011;21110;48.036;15.780;2023-03-13T02:47:11;4.38;;;1.58;;
29242;SDS011;21110;48.036;15.780;2023-03-13T02:49:41;3.25;;;1.55;;
29242;SDS011;21110;48.036;15.780;2023-03-13T02:54:41;1.40;;;1.30;;
29242;SDS011;21110;48.036;15.780;2023-03-13T02:57:09;1.40;;;1.20;;
29242;SDS011;21110;48.036;15.780;2023-03-13T02:59:35;1.58;;;1.40;;
29242;SDS011;21110;48.036;15.780;2023-03-13T03:02:01;1.50;;;1.40;;
29242;SDS011;21110;48.036;15.780;2023-03-13T03:04:28;3.63;;;1.40;;
29242;SDS011;21110;48.036;15.780;2023-03-13T03:06:54;1.40;;;1.30;;
29242;SDS011;21110;48.036;15.780;2023-03-13T03:09:20;1.92;;;1.30;;
29242;SDS011;21110;48.036;15.780;2023-03-13T03:11:47;3.42;;;1.40;;
29242;SDS011;21110;48.036;15.780;2023-03-13T03:14:12;1.50;;;1.40;;
29242;SDS011;21110;48.036;15.780;2023-03-13T03:16:38;1.92;;;1.45;;
29242;SDS011;21110;48.036;15.780;2023-03-13T03:19:04;1.63;;;1.30;;
29242;SDS011;21110;48.036;15.780;2023-03-13T03:21:31;3.08;;;1.30;;
29242;SDS011;21110;48.036;15.780;2023-03-13T03:23:57;2.88;;;1.30;;
29242;SDS011;21110;48.036;15.780;2023-03-13T03:26:23;3.75;;;1.33;;
29242;SDS011;21110;48.036;15.780;2023-03-13T03:28:49;2.10;;;1.33;;
29242;SDS011;21110;48.036;15.780;2023-03-13T03:31:15;1.95;;;1.38;;
29242;SDS011;21110;48.036;15.780;2023-03-13T03:33:41;3.22;;;1.35;;
29242;SDS011;21110;48.036;15.780;2023-03-13T03:36:08;1.42;;;1.33;;
29242;SDS011;21110;48.036;15.780;2023-03-13T03:38:35;1.60;;;1.35;;
29242;SDS011;21110;48.036;15.780;2023-03-13T03:41:03;1.50;;;1.40;;
29242;SDS011;21110;48.036;15.780;2023-03-13T03:43:30;1.85;;;1.30;;
29242;SDS011;21110;48.036;15.780;2023-03-13T03:45:56;1.58;;;1.40;;
29242;SDS011;21110;48.036;15.780;2023-03-13T03:48:21;3.92;;;1.40;;
29242;SDS011;21110;48.036;15.780;2023-03-13T03:50:47;4.68;;;1.60;;
29242;SDS011;21110;48.036;15.780;2023-03-13T03:53:13;5.55;;;1.50;;
29242;SDS011;21110;48.036;15.780;2023-03-13T03:55:39;4.20;;;1.30;;
29242;SDS011;21110;48.036;15.780;2023-03-13T03:58:04;3.20;;;1.40;;
29242;SDS011;21110;48.036;15.780;2023-03-13T04:00:30;2.88;;;1.30;;
29242;SDS011;21110;48.036;15.780;2023-03-13T04:02:55;2.10;;;1.30;;
29242;SDS011;21110;48.036;15.780;2023-03-13T04:05:21;1.40;;;1.30;;
29242;SDS011;21110;48.036;15.780;2023-03-13T04:07:48;2.08;;;1.40;;
29242;SDS011;21110;48.036;15.780;2023-03-13T04:10:13;1.60;;;1.38;;
29242;SDS011;21110;48.036;15.780;2023-03-13T04:12:39;3.90;;;1.50;;
29242;SDS011;21110;48.036;15.780;2023-03-13T04:15:05;1.42;;;1.33;;
29242;SDS011;21110;48.036;15.780;2023-03-13T04:17:31;3.85;;;1.40;;
29242;SDS011;21110;48.036;15.780;2023-03-13T04:19:57;4.00;;;1.40;;
29242;SDS011;21110;48.036;15.780;2023-03-13T04:22:23;1.60;;;1.50;;
29242;SDS011;21110;48.036;15.780;2023-03-13T04:24:49;2.08;;;1.30;;
29242;SDS011;21110;48.036;15.780;2023-03-13T04:27:16;6.53;;;1.60;;
29242;SDS011;21110;48.036;15.780;2023-03-13T04:29:42;1.92;;;1.70;;
29242;SDS011;21110;48.036;15.780;2023-03-13T04:32:08;1.77;;;1.67;;
29242;SDS011;21110;48.036;15.780;2023-03-13T04:34:33;3.22;;;1.50;;
29242;SDS011;21110;48.036;15.780;2023-03-13T04:36:59;6.28;;;1.50;;
29242;SDS011;21110;48.036;15.780;2023-03-13T04:39:25;15.55;;;1.70;;
29242;SDS011;21110;48.036;15.780;2023-03-13T04:41:51;6.20;;;1.60;;
29242;SDS011;21110;48.036;15.780;2023-03-13T04:44:16;4.68;;;1.63;;
29242;SDS011;21110;48.036;15.780;2023-03-13T04:46:42;5.88;;;1.58;;
29242;SDS011;21110;48.036;15.780;2023-03-13T04:49:08;5.15;;;1.60;;
29242;SDS011;21110;48.036;15.780;2023-03-13T04:51:33;10.32;;;1.70;;
29242;SDS011;21110;48.036;15.780;2023-03-13T04:53:59;4.57;;;1.50;;
29242;SDS011;21110;48.036;15.780;2023-03-13T04:56:25;1.90;;;1.55;;
29242;SDS011;21110;48.036;15.780;2023-03-13T04:58:52;5.82;;;1.63;;
29242;SDS011;21110;48.036;15.780;2023-03-13T05:01:18;4.78;;;1.70;;
29242;SDS011;21110;48.036;15.780;2023-03-13T05:03:43;4.22;;;1.58;;
29242;SDS011;21110;48.036;15.780;2023-03-13T05:06:10;3.88;;;1.70;;
29242;SDS011;21110;48.036;15.780;2023-03-13T05:08:36;6.30;;;1.60;;
29242;SDS011;21110;48.036;15.780;2023-03-13T05:11:02;1.50;;;1.40;;
29242;SDS011;21110;48.036;15.780;2023-03-13T05:13:28;5.38;;;1.70;;
29242;SDS011;21110;48.036;15.780;2023-03-13T05:15:54;3.83;;;1.90;;
29242;SDS011;21110;48.036;15.780;2023-03-13T05:18:19;6.53;;;2.38;;
29242;SDS011;21110;48.036;15.780;2023-03-13T05:20:45;5.45;;;2.20;;
29242;SDS011;21110;48.036;15.780;2023-03-13T05:23:11;3.38;;;2.17;;
29242;SDS011;21110;48.036;15.780;2023-03-13T05:25:36;3.70;;;2.40;;
29242;SDS011;21110;48.036;15.780;2023-03-13T05:28:02;4.07;;;2.50;;
29242;SDS011;21110;48.036;15.780;2023-03-13T05:30:28;3.67;;;2.50;;
29242;SDS011;21110;48.036;15.780;2023-03-13T05:32:53;6.57;;;2.20;;
29242;SDS011;21110;48.036;15.780;2023-03-13T05:35:19;4.78;;;2.22;;
29242;SDS011;21110;48.036;15.780;2023-03-13T05:37:45;29.58;;;2.88;;
29242;SDS011;21110;48.036;15.780;2023-03-13T05:40:11;24.55;;;2.65;;
29242;SDS011;21110;48.036;15.780;2023-03-13T05:42:37;17.95;;;2.67;;
29242;SDS011;21110;48.036;15.780;2023-03-13T05:45:03;11.75;;;2.70;;
29242;SDS011;21110;48.036;15.780;2023-03-13T05:47:30;19.58;;;2.58;;
29242;SDS011;21110;48.036;15.780;2023-03-13T05:49:55;10.75;;;2.50;;
29242;SDS011;21110;48.036;15.780;2023-03-13T05:52:21;18.27;;;2.40;;
29242;SDS011;21110;48.036;15.780;2023-03-13T05:54:46;16.00;;;2.60;;
29242;SDS011;21110;48.036;15.780;2023-03-13T05:57:12;10.88;;;2.30;;
29242;SDS011;21110;48.036;15.780;2023-03-13T05:59:38;10.35;;;2.55;;
29242;SDS011;21110;48.036;15.780;2023-03-13T06:02:04;7.35;;;2.53;;
29242;SDS011;21110;48.036;15.780;2023-03-13T06:04:29;9.18;;;2.50;;
29242;SDS011;21110;48.036;15.780;2023-03-13T06:06:55;11.10;;;2.53;;
29242;SDS011;21110;48.036;15.780;2023-03-13T06:09:21;5.70;;;2.40;;
29242;SDS011;21110;48.036;15.780;2023-03-13T06:11:46;9.10;;;2.70;;
29242;SDS011;21110;48.036;15.780;2023-03-13T06:14:12;7.05;;;2.40;;
29242;SDS011;21110;48.036;15.780;2023-03-13T06:16:37;6.78;;;2.60;;
29242;SDS011;21110;48.036;15.780;2023-03-13T06:19:03;4.18;;;2.20;;
29242;SDS011;21110;48.036;15.780;2023-03-13T06:21:29;5.10;;;2.10;;
29242;SDS011;21110;48.036;15.780;2023-03-13T06:23:54;7.15;;;2.30;;
29242;SDS011;21110;48.036;15.780;2023-03-13T06:26:20;6.15;;;2.40;;
29242;SDS011;21110;48.036;15.780;2023-03-13T06:28:48;7.88;;;2.42;;
29242;SDS011;21110;48.036;15.780;2023-03-13T06:31:14;4.20;;;2.20;;
29242;SDS011;21110;48.036;15.780;2023-03-13T06:33:39;4.10;;;2.10;;
29242;SDS011;21110;48.036;15.780;2023-03-13T06:36:06;9.23;;;2.38;;
29242;SDS011;21110;48.036;15.780;2023-03-13T06:38:32;7.10;;;2.28;;
29242;SDS011;21110;48.036;15.780;2023-03-13T06:40:57;2.20;;;2.00;;
29242;SDS011;21110;48.036;15.780;2023-03-13T06:43:23;3.00;;;2.20;;
29242;SDS011;21110;48.036;15.780;2023-03-13T06:45:49;3.10;;;1.92;;
29242;SDS011;21110;48.036;15.780;2023-03-13T06:48:15;2.80;;;2.10;;
29242;SDS011;21110;48.036;15.780;2023-03-13T06:50:41;2.90;;;1.92;;
29242;SDS011;21110;48.036;15.780;2023-03-13T06:53:07;4.30;;;2.22;;
29242;SDS011;21110;48.036;15.780;2023-03-13T06:55:42;3.30;;;1.90;;
29242;SDS011;21110;48.036;15.780;2023-03-13T06:58:08;3.85;;;1.95;;
29242;SDS011;21110;48.036;15.780;2023-03-13T07:00:34;3.55;;;2.00;;
29242;SDS011;21110;48.036;15.780;2023-03-13T07:03:00;2.47;;;1.88;;
29242;SDS011;21110;48.036;15.780;2023-03-13T07:05:25;2.72;;;1.95;;
29242;SDS011;21110;48.036;15.780;2023-03-13T07:07:51;4.63;;;2.00;;
29242;SDS011;21110;48.036;15.780;2023-03-13T07:10:17;2.17;;;1.98;;
29242;SDS011;21110;48.036;15.780;2023-03-13T07:12:43;3.08;;;2.20;;
29242;SDS011;21110;48.036;15.780;2023-03-13T07:15:09;2.47;;;2.00;;
29242;SDS011;21110;48.036;15.780;2023-03-13T07:17:35;2.30;;;2.05;;
29242;SDS011;21110;48.036;15.780;2023-03-13T07:20:02;3.92;;;2.10;;
29242;SDS011;21110;48.036;15.780;2023-03-13T07:22:34;4.70;;;2.20;;
29242;SDS011;21110;48.036;15.780;2023-03-13T07:25:03;3.13;;;2.20;;
29242;SDS011;21110;48.036;15.780;2023-03-13T07:27:30;2.08;;;1.92;;
29242;SDS011;21110;48.036;15.780;2023-03-13T07:29:56;3.88;;;2.08;;
29242;SDS011;21110;48.036;15.780;2023-03-13T07:32:22;2.35;;;2.15;;
29242;SDS011;21110;48.036;15.780;2023-03-13T07:34:47;3.28;;;2.20;;
29242;SDS011;21110;48.036;15.780;2023-03-13T07:37:13;2.47;;;2.10;;
29242;SDS011;21110;48.036;15.780;2023-03-13T07:39:40;2.75;;;2.10;;
29242;SDS011;21110;48.036;15.780;2023-03-13T07:42:09;2.28;;;2.10;;
29242;SDS011;21110;48.036;15.780;2023-03-13T07:44:36;2.58;;;2.20;;
29242;SDS011;21110;48.036;15.780;2023-03-13T07:47:01;3.25;;;1.98;;
29242;SDS011;21110;48.036;15.780;2023-03-13T07:49:27;3.20;;;2.10;;
29242;SDS011;21110;48.036;15.780;2023-03-13T07:51:53;3.65;;;2.10;;
29242;SDS011;21110;48.036;15.780;2023-03-13T07:54:19;2.30;;;2.10;;
29242;SDS011;21110;48.036;15.780;2023-03-13T07:56:44;2.33;;;1.90;;
29242;SDS011;21110;48.036;15.780;2023-03-13T07:59:10;2.15;;;1.90;;
29242;SDS011;21110;48.036;15.780;2023-03-13T08:01:36;2.20;;;2.00;;
29242;SDS011;21110;48.036;15.780;2023-03-13T08:04:01;1.92;;;1.80;;
29242;SDS011;21110;48.036;15.780;2023-03-13T08:06:31;2.10;;;1.95;;
29242;SDS011;21110;48.036;15.780;2023-03-13T08:08:59;1.90;;;1.70;;
29242;SDS011;21110;48.036;15.780;2023-03-13T08:11:26;3.63;;;1.88;;
29242;SDS011;21110;48.036;15.780;2023-03-13T08:13:54;2.92;;;1.80;;
29242;SDS011;21110;48.036;15.780;2023-03-13T08:16:21;2.10;;;1.90;;
29242;SDS011;21110;48.036;15.780;2023-03-13T08:18:49;2.28;;;1.80;;
29242;SDS011;21110;48.036;15.780;2023-03-13T08:21:20;2.30;;;2.10;;
29242;SDS011;21110;48.036;15.780;2023-03-13T08:23:48;2.60;;;2.03;;
29242;SDS011;21110;48.036;15.780;2023-03-13T08:26:18;2.10;;;2.00;;
29242;SDS011;21110;48.036;15.780;2023-03-13T08:28:45;1.70;;;1.60;;
29242;SDS011;21110;48.036;15.780;2023-03-13T08:31:13;2.03;;;1.92;;
29242;SDS011;21110;48.036;15.780;2023-03-13T08:33:46;2.10;;;1.90;;
29242;SDS011;21110;48.036;15.780;2023-03-13T08:38:47;2.20;;;1.70;;
29242;SDS011;21110;48.036;15.780;2023-03-13T08:41:14;1.83;;;1.73;;
29242;SDS011;21110;48.036;15.780;2023-03-13T08:43:42;2.00;;;1.60;;
29242;SDS011;21110;48.036;15.780;2023-03-13T08:46:08;2.00;;;1.80;;
29242;SDS011;21110;48.036;15.780;2023-03-13T08:48:34;2.17;;;1.80;;
29242;SDS011;21110;48.036;15.780;2023-03-13T08:51:10;1.83;;;1.70;;
29242;SDS011;21110;48.036;15.780;2023-03-13T08:53:38;1.70;;;1.60;;
29242;SDS011;21110;48.036;15.780;2023-03-13T08:56:05;1.70;;;1.60;;
29242;SDS011;21110;48.036;15.780;2023-03-13T08:58:31;1.70;;;1.60;;
29242;SDS011;21110;48.036;15.780;2023-03-13T09:01:00;1.70;;;1.60;;
29242;SDS011;21110;48.036;15.780;2023-03-13T09:03:27;1.88;;;1.75;;
29242;SDS011;21110;48.036;15.780;2023-03-13T09:05:53;2.72;;;1.60;;
29242;SDS011;21110;48.036;15.780;2023-03-13T09:08:21;1.77;;;1.67;;
29242;SDS011;21110;48.036;15.780;2023-03-13T09:10:47;1.60;;;1.50;;
29242;SDS011;21110;48.036;15.780;2023-03-13T09:13:12;1.65;;;1.55;;
29242;SDS011;21110;48.036;15.780;2023-03-13T09:15:38;1.70;;;1.60;;
29242;SDS011;21110;48.036;15.780;2023-03-13T09:18:03;1.65;;;1.55;;
29242;SDS011;21110;48.036;15.780;2023-03-13T09:20:30;1.70;;;1.60;;
29242;SDS011;21110;48.036;15.780;2023-03-13T09:22:55;1.60;;;1.50;;
29242;SDS011;21110;48.036;15.780;2023-03-13T09:25:21;1.60;;;1.50;;
29242;SDS011;21110;48.036;15.780;2023-03-13T09:27:47;1.58;;;1.48;;
29242;SDS011;21110;48.036;15.780;2023-03-13T09:30:12;1.70;;;1.60;;
29242;SDS011;21110;48.036;15.780;2023-03-13T09:32:38;1.60;;;1.50;;
29242;SDS011;21110;48.036;15.780;2023-03-13T09:35:04;1.80;;;1.70;;
29242;SDS011;21110;48.036;15.780;2023-03-13T09:37:29;1.50;;;1.40;;
29242;SDS011;21110;48.036;15.780;2023-03-13T09:39:55;1.38;;;1.38;;
29242;SDS011;21110;48.036;15.780;2023-03-13T09:45:08;1.30;;;1.30;;
29242;SDS011;21110;48.036;15.780;2023-03-13T09:50:12;1.55;;;1.45;;
29242;SDS011;21110;48.036;15.780;2023-03-13T09:52:42;1.70;;;1.60;;
29242;SDS011;21110;48.036;15.780;2023-03-13T09:57:53;1.80;;;1.70;;
29242;SDS011;21110;48.036;15.780;2023-03-13T10:00:30;1.80;;;1.70;;
29242;SDS011;21110;48.036;15.780;2023-03-13T10:05:46;2.03;;;1.80;;
29242;SDS011;21110;48.036;15.780;2023-03-13T10:08:16;1.60;;;1.50;;
29242;SDS011;21110;48.036;15.780;2023-03-13T10:10:43;1.60;;;1.50;;
29242;SDS011;21110;48.036;15.780;2023-03-13T10:13:22;1.70;;;1.60;;
29242;SDS011;21110;48.036;15.780;2023-03-13T10:16:48;1.58;;;1.50;;
29242;SDS011;21110;48.036;15.780;2023-03-13T10:19:20;1.80;;;1.70;;
29242;SDS011;21110;48.036;15.780;2023-03-13T10:21:59;1.70;;;1.60;;
29242;SDS011;21110;48.036;15.780;2023-03-13T10:26:58;1.83;;;1.70;;
29242;SDS011;21110;48.036;15.780;2023-03-13T10:29:25;1.65;;;1.55;;
29242;SDS011;21110;48.036;15.780;2023-03-13T10:31:58;1.70;;;1.60;;
29242;SDS011;21110;48.036;15.780;2023-03-13T10:34:27;1.60;;;1.50;;
29242;SDS011;21110;48.036;15.780;2023-03-13T10:36:58;1.50;;;1.50;;
29242;SDS011;21110;48.036;15.780;2023-03-13T10:39:26;1.67;;;1.58;;
29242;SDS011;21110;48.036;15.780;2023-03-13T10:41:57;1.45;;;1.45;;
29242;SDS011;21110;48.036;15.780;2023-03-13T10:44:34;1.48;;;1.48;;
29242;SDS011;21110;48.036;15.780;2023-03-13T10:47:00;1.63;;;1.52;;
29242;SDS011;21110;48.036;15.780;2023-03-13T10:49:27;2.10;;;1.60;;
29242;SDS011;21110;48.036;15.780;2023-03-13T10:51:54;1.70;;;1.60;;
29242;SDS011;21110;48.036;15.780;2023-03-13T10:54:29;1.58;;;1.50;;
29242;SDS011;21110;48.036;15.780;2023-03-13T10:59:47;1.83;;;1.40;;
29242;SDS011;21110;48.036;15.780;2023-03-13T11:02:22;1.60;;;1.50;;
29242;SDS011;21110;48.036;15.780;2023-03-13T11:04:50;1.60;;;1.50;;
29242;SDS011;21110;48.036;15.780;2023-03-13T11:07:38;1.45;;;1.35;;
29242;SDS011;21110;48.036;15.780;2023-03-13T11:10:26;1.50;;;1.40;;
29242;SDS011;21110;48.036;15.780;2023-03-13T11:12:54;1.35;;;1.30;;
29242;SDS011;21110;48.036;15.780;2023-03-13T11:20:43;1.42;;;1.33;;
29242;SDS011;21110;48.036;15.780;2023-03-13T11:25:45;1.40;;;1.40;;
29242;SDS011;21110;48.036;15.780;2023-03-13T11:31:20;1.20;;;1.20;;
29242;SDS011;21110;48.036;15.780;2023-03-13T11:37:00;1.42;;;1.38;;
29242;SDS011;21110;48.036;15.780;2023-03-13T12:01:01;1.55;;;1.52;;
29242;SDS011;21110;48.036;15.780;2023-03-13T12:06:15;1.70;;;1.60;;
29242;SDS011;21110;48.036;15.780;2023-03-13T12:08:51;1.40;;;1.40;;
29242;SDS011;21110;48.036;15.780;2023-03-13T12:11:32;1.45;;;1.45;;
29242;SDS011;21110;48.036;15.780;2023-03-13T12:14:17;1.50;;;1.50;;
29242;SDS011;21110;48.036;15.780;2023-03-13T12:17:02;1.40;;;1.40;;
29242;SDS011;21110;48.036;15.780;2023-03-13T12:19:36;1.40;;;1.40;;
29242;SDS011;21110;48.036;15.780;2023-03-13T12:22:32;1.50;;;1.40;;
29242;SDS011;21110;48.036;15.780;2023-03-13T12:25:02;1.40;;;1.40;;
29242;SDS011;21110;48.036;15.780;2023-03-13T12:27:46;1.30;;;1.30;;
29242;SDS011;21110;48.036;15.780;2023-03-13T12:35:52;1.30;;;1.30;;
29242;SDS011;21110;48.036;15.780;2023-03-13T12:38:48;1.38;;;1.38;;
29242;SDS011;21110;48.036;15.780;2023-03-13T12:43:56;1.60;;;1.50;;
29242;SDS011;21110;48.036;15.780;2023-03-13T12:57:17;1.50;;;1.50;;
29242;SDS011;21110;48.036;15.780;2023-03-13T13:00:08;1.50;;;1.40;;
29242;SDS011;21110;48.036;15.780;2023-03-13T13:02:44;1.48;;;1.48;;
29242;SDS011;21110;48.036;15.780;2023-03-13T13:05:16;1.48;;;1.48;;
29242;SDS011;21110;48.036;15.780;2023-03-13T13:07:52;1.40;;;1.30;;
29242;SDS011;21110;48.036;15.780;2023-03-13T13:10:22;1.30;;;1.30;;
29242;SDS011;21110;48.036;15.780;2023-03-13T13:15:40;1.40;;;1.40;;
29242;SDS011;21110;48.036;15.780;2023-03-13T13:18:27;1.35;;;1.30;;
29242;SDS011;21110;48.036;15.780;2023-03-13T13:23:27;1.40;;;1.40;;
29242;SDS011;21110;48.036;15.780;2023-03-13T13:28:57;1.40;;;1.40;;
29242;SDS011;21110;48.036;15.780;2023-03-13T13:32:06;1.30;;;1.30;;
29242;SDS011;21110;48.036;15.780;2023-03-13T13:37:25;1.40;;;1.40;;
29242;SDS011;21110;48.036;15.780;2023-03-13T13:39:52;1.27;;;1.27;;
29242;SDS011;21110;48.036;15.780;2023-03-13T13:45:04;1.23;;;1.23;;
29242;SDS011;21110;48.036;15.780;2023-03-13T13:47:47;1.25;;;1.25;;
29242;SDS011;21110;48.036;15.780;2023-03-13T13:50:16;1.27;;;1.25;;
29242;SDS011;21110;48.036;15.780;2023-03-13T13:52:45;1.30;;;1.30;;
29242;SDS011;21110;48.036;15.780;2023-03-13T13:55:29;1.40;;;1.40;;
29242;SDS011;21110;48.036;15.780;2023-03-13T13:58:19;1.40;;;1.40;;
29242;SDS011;21110;48.036;15.780;2023-03-13T14:00:58;1.27;;;1.27;;
29242;SDS011;21110;48.036;15.780;2023-03-13T14:03:27;1.35;;;1.35;;
29242;SDS011;21110;48.036;15.780;2023-03-13T14:06:02;1.30;;;1.30;;
29242;SDS011;21110;48.036;15.780;2023-03-13T14:08:44;1.60;;;1.50;;
29242;SDS011;21110;48.036;15.780;2023-03-13T14:11:28;1.33;;;1.33;;
29242;SDS011;21110;48.036;15.780;2023-03-13T14:14:07;1.40;;;1.30;;
29242;SDS011;21110;48.036;15.780;2023-03-13T14:16:41;1.45;;;1.35;;
29242;SDS011;21110;48.036;15.780;2023-03-13T14:21:46;1.20;;;1.20;;
29242;SDS011;21110;48.036;15.780;2023-03-13T14:24:12;1.20;;;1.20;;
29242;SDS011;21110;48.036;15.780;2023-03-13T14:26:41;1.13;;;1.13;;
29242;SDS011;21110;48.036;15.780;2023-03-13T14:29:14;1.50;;;1.40;;
29242;SDS011;21110;48.036;15.780;2023-03-13T14:31:46;1.20;;;1.20;;
29242;SDS011;21110;48.036;15.780;2023-03-13T14:34:15;1.10;;;1.10;;
29242;SDS011;21110;48.036;15.780;2023-03-13T14:39:34;1.20;;;1.20;;
29242;SDS011;21110;48.036;15.780;2023-03-13T14:42:03;1.20;;;1.20;;
29242;SDS011;21110;48.036;15.780;2023-03-13T14:44:29;1.10;;;1.10;;
29242;SDS011;21110;48.036;15.780;2023-03-13T14:46:58;1.33;;;1.33;;
29242;SDS011;21110;48.036;15.780;2023-03-13T14:49:28;1.27;;;1.27;;
29242;SDS011;21110;48.036;15.780;2023-03-13T14:54:33;1.20;;;1.20;;
29242;SDS011;21110;48.036;15.780;2023-03-13T14:57:01;1.20;;;1.20;;
29242;SDS011;21110;48.036;15.780;2023-03-13T14:59:29;1.13;;;1.13;;
29242;SDS011;21110;48.036;15.780;2023-03-13T15:02:18;1.20;;;1.20;;
29242;SDS011;21110;48.036;15.780;2023-03-13T15:07:46;1.20;;;1.20;;
29242;SDS011;21110;48.036;15.780;2023-03-13T15:10:37;1.25;;;1.25;;
29242;SDS011;21110;48.036;15.780;2023-03-13T15:13:22;1.20;;;1.20;;
29242;SDS011;21110;48.036;15.780;2023-03-13T15:15:50;1.10;;;1.10;;
29242;SDS011;21110;48.036;15.780;2023-03-13T15:20:47;1.20;;;1.20;;
29242;SDS011;21110;48.036;15.780;2023-03-13T15:23:17;1.10;;;1.10;;
29242;SDS011;21110;48.036;15.780;2023-03-13T15:25:43;1.13;;;1.13;;
29242;SDS011;21110;48.036;15.780;2023-03-13T15:28:13;1.20;;;1.20;;
29242;SDS011;21110;48.036;15.780;2023-03-13T15:30:40;1.20;;;1.20;;
29242;SDS011;21110;48.036;15.780;2023-03-13T15:33:13;1.13;;;1.13;;
29242;SDS011;21110;48.036;15.780;2023-03-13T15:35:41;1.10;;;1.10;;
29242;SDS011;21110;48.036;15.780;2023-03-13T15:38:18;2.13;;;1.30;;
29242;SDS011;21110;48.036;15.780;2023-03-13T15:40:45;3.55;;;1.45;;
29242;SDS011;21110;48.036;15.780;2023-03-13T15:43:11;1.73;;;1.58;;
29242;SDS011;21110;48.036;15.780;2023-03-13T15:45:38;5.13;;;1.50;;
29242;SDS011;21110;48.036;15.780;2023-03-13T15:50:43;1.92;;;1.40;;
29242;SDS011;21110;48.036;15.780;2023-03-13T15:55:42;2.28;;;1.50;;
29242;SDS011;21110;48.036;15.780;2023-03-13T15:58:07;2.70;;;1.58;;
29242;SDS011;21110;48.036;15.780;2023-03-13T16:00:35;5.68;;;1.65;;
29242;SDS011;21110;48.036;15.780;2023-03-13T16:03:01;2.78;;;1.70;;
29242;SDS011;21110;48.036;15.780;2023-03-13T16:05:26;3.95;;;1.80;;
29242;SDS011;21110;48.036;15.780;2023-03-13T16:07:53;4.25;;;1.60;;
29242;SDS011;21110;48.036;15.780;2023-03-13T16:10:21;4.47;;;1.60;;
29242;SDS011;21110;48.036;15.780;2023-03-13T16:12:49;3.83;;;1.73;;
29242;SDS011;21110;48.036;15.780;2023-03-13T16:15:15;7.47;;;1.98;;
29242;SDS011;21110;48.036;15.780;2023-03-13T16:17:41;9.18;;;1.98;;
29242;SDS011;21110;48.036;15.780;2023-03-13T16:20:11;2.75;;;1.90;;
29242;SDS011;21110;48.036;15.780;2023-03-13T16:22:41;6.30;;;1.90;;
29242;SDS011;21110;48.036;15.780;2023-03-13T16:25:07;4.45;;;1.92;;
29242;SDS011;21110;48.036;15.780;2023-03-13T16:27:33;4.25;;;2.10;;
29242;SDS011;21110;48.036;15.780;2023-03-13T16:29:59;4.22;;;2.13;;
29242;SDS011;21110;48.036;15.780;2023-03-13T16:32:31;8.20;;;2.22;;
29242;SDS011;21110;48.036;15.780;2023-03-13T16:34:56;7.20;;;2.40;;
29242;SDS011;21110;48.036;15.780;2023-03-13T16:37:23;6.68;;;2.22;;
29242;SDS011;21110;48.036;15.780;2023-03-13T16:39:49;3.63;;;2.00;;
29242;SDS011;21110;48.036;15.780;2023-03-13T16:42:15;6.63;;;2.00;;
29242;SDS011;21110;48.036;15.780;2023-03-13T16:44:41;6.05;;;2.40;;
29242;SDS011;21110;48.036;15.780;2023-03-13T16:47:18;7.18;;;2.55;;
29242;SDS011;21110;48.036;15.780;2023-03-13T16:49:52;4.88;;;2.40;;
29242;SDS011;21110;48.036;15.780;2023-03-13T16:52:18;10.43;;;2.60;;